sensor_id;sensor_type;location;lat;lon;timestamp;pressure;altitude;pressure_sealevel;temperature;humidity
5522;BME280;2783;48.730;8.006;2023-12-04T00:01:52;100294.38;;;-1.42;100.00
5522;BME280;2783;48.730;8.006;2023-12-04T00:04:18;100283.84;;;-1.47;100.00
5522;BME280;2783;48.730;8.006;2023-12-04T00:06:43;100285.75;;;-1.38;100.00
5522;BME280;2783;48.730;8.006;2023-12-04T00:09:09;100279.72;;;-1.37;100.00
5522;BME280;2783;48.730;8.006;2023-12-04T00:11:34;100271.75;;;-1.43;100.00
5522;BME280;2783;48.730;8.006;2023-12-04T00:14:00;100277.16;;;-1.34;100.00
5522;BME280;2783;48.730;8.006;2023-12-04T00:16:25;100273.81;;;-1.27;100.00
5522;BME280;2783;48.730;8.006;2023-12-04T00:18:51;100263.28;;;-1.30;100.00
5522;BME280;2783;48.730;8.006;2023-12-04T00:21:16;100263.44;;;-1.24;100.00
5522;BME280;2783;48.730;8.006;2023-12-04T00:23:42;100257.28;;;-1.27;100.00
5522;BME280;2783;48.730;8.006;2023-12-04T00:26:07;100260.81;;;-1.24;100.00
5522;BME280;2783;48.730;8.006;2023-12-04T00:28:35;100245.94;;;-1.28;100.00
5522;BME280;2783;48.730;8.006;2023-12-04T00:31:01;100240.81;;;-1.23;100.00
5522;BME280;2783;48.730;8.006;2023-12-04T00:33:26;100235.63;;;-1.22;100.00
5522;BME280;2783;48.730;8.006;2023-12-04T00:35:52;100245.19;;;-1.22;100.00
5522;BME280;2783;48.730;8.006;2023-12-04T00:38:17;100228.59;;;-1.26;100.00
5522;BME280;2783;48.730;8.006;2023-12-04T00:40:43;100237.38;;;-1.21;100.00
5522;BME280;2783;48.730;8.006;2023-12-04T00:43:08;100241.69;;;-1.23;100.00
5522;BME280;2783;48.730;8.006;2023-12-04T00:45:34;100232.97;;;-1.23;100.00
5522;BME280;2783;48.730;8.006;2023-12-04T00:47:59;100225.25;;;-1.19;100.00
5522;BME280;2783;48.730;8.006;2023-12-04T00:50:24;100216.47;;;-1.24;100.00
5522;BME280;2783;48.730;8.006;2023-12-04T00:52:50;100218.09;;;-1.29;100.00
5522;BME280;2783;48.730;8.006;2023-12-04T00:55:15;100207.75;;;-1.24;100.00
5522;BME280;2783;48.730;8.006;2023-12-04T00:57:40;100199.78;;;-1.33;100.00
5522;BME280;2783;48.730;8.006;2023-12-04T01:00:06;100200.75;;;-1.27;100.00
5522;BME280;2783;48.730;8.006;2023-12-04T01:02:32;100193.81;;;-1.25;100.00
5522;BME280;2783;48.730;8.006;2023-12-04T01:04:57;100206.09;;;-1.19;100.00
5522;BME280;2783;48.730;8.006;2023-12-04T01:07:23;100206.13;;;-1.18;100.00
5522;BME280;2783;48.730;8.006;2023-12-04T01:09:48;100204.25;;;-1.25;100.00
5522;BME280;2783;48.730;8.006;2023-12-04T01:12:13;100199.81;;;-1.32;100.00
5522;BME280;2783;48.730;8.006;2023-12-04T01:14:39;100196.22;;;-1.37;100.00
5522;BME280;2783;48.730;8.006;2023-12-04T01:17:04;100193.59;;;-1.39;100.00
5522;BME280;2783;48.730;8.006;2023-12-04T01:19:31;100198.72;;;-1.43;100.00
5522;BME280;2783;48.730;8.006;2023-12-04T01:21:57;100185.63;;;-1.46;100.00
5522;BME280;2783;48.730;8.006;2023-12-04T01:24:22;100189.94;;;-1.48;100.00
5522;BME280;2783;48.730;8.006;2023-12-04T01:26:48;100183.00;;;-1.46;100.00
5522;BME280;2783;48.730;8.006;2023-12-04T01:29:13;100179.44;;;-1.51;100.00
5522;BME280;2783;48.730;8.006;2023-12-04T01:31:39;100169.00;;;-1.51;100.00
5522;BME280;2783;48.730;8.006;2023-12-04T01:34:04;100159.47;;;-1.51;100.00
5522;BME280;2783;48.730;8.006;2023-12-04T01:36:29;100162.03;;;-1.54;100.00
5522;BME280;2783;48.730;8.006;2023-12-04T01:38:55;100167.28;;;-1.52;100.00
5522;BME280;2783;48.730;8.006;2023-12-04T01:41:20;100167.09;;;-1.61;100.00
5522;BME280;2783;48.730;8.006;2023-12-04T01:43:46;100162.72;;;-1.64;100.00
5522;BME280;2783;48.730;8.006;2023-12-04T01:46:13;100169.66;;;-1.64;100.00
5522;BME280;2783;48.730;8.006;2023-12-04T01:48:41;100172.25;;;-1.64;100.00
5522;BME280;2783;48.730;8.006;2023-12-04T01:51:08;100162.63;;;-1.68;100.00
5522;BME280;2783;48.730;8.006;2023-12-04T01:53:36;100155.72;;;-1.65;100.00
5522;BME280;2783;48.730;8.006;2023-12-04T01:56:04;100160.19;;;-1.59;100.00
5522;BME280;2783;48.730;8.006;2023-12-04T01:58:29;100163.66;;;-1.60;100.00
5522;BME280;2783;48.730;8.006;2023-12-04T02:00:55;100155.91;;;-1.56;100.00
5522;BME280;2783;48.730;8.006;2023-12-04T02:03:20;100143.75;;;-1.55;100.00
5522;BME280;2783;48.730;8.006;2023-12-04T02:05:46;100144.81;;;-1.44;100.00
5522;BME280;2783;48.730;8.006;2023-12-04T02:08:12;100155.31;;;-1.38;100.00
5522;BME280;2783;48.730;8.006;2023-12-04T02:10:37;100145.81;;;-1.35;100.00
5522;BME280;2783;48.730;8.006;2023-12-04T02:13:04;100152.94;;;-1.26;100.00
5522;BME280;2783;48.730;8.006;2023-12-04T02:15:29;100146.97;;;-1.19;100.00
5522;BME280;2783;48.730;8.006;2023-12-04T02:17:55;100140.81;;;-1.24;100.00
5522;BME280;2783;48.730;8.006;2023-12-04T02:20:20;100150.53;;;-1.14;100.00
5522;BME280;2783;48.730;8.006;2023-12-04T02:22:46;100143.69;;;-1.06;100.00
5522;BME280;2783;48.730;8.006;2023-12-04T02:25:11;100129.91;;;-0.99;100.00
5522;BME280;2783;48.730;8.006;2023-12-04T02:27:49;100135.25;;;-0.90;100.00
5522;BME280;2783;48.730;8.006;2023-12-04T02:30:17;100123.16;;;-0.82;100.00
5522;BME280;2783;48.730;8.006;2023-12-04T02:32:45;100121.47;;;-0.80;100.00
5522;BME280;2783;48.730;8.006;2023-12-04T02:35:12;100111.94;;;-0.76;100.00
5522;BME280;2783;48.730;8.006;2023-12-04T02:37:39;100110.22;;;-0.76;100.00
5522;BME280;2783;48.730;8.006;2023-12-04T02:40:06;100099.88;;;-0.68;100.00
5522;BME280;2783;48.730;8.006;2023-12-04T02:42:32;100110.38;;;-0.64;100.00
5522;BME280;2783;48.730;8.006;2023-12-04T02:44:57;100101.72;;;-0.61;100.00
5522;BME280;2783;48.730;8.006;2023-12-04T02:47:23;100088.66;;;-0.60;100.00
5522;BME280;2783;48.730;8.006;2023-12-04T02:49:48;100086.97;;;-0.58;100.00
5522;BME280;2783;48.730;8.006;2023-12-04T02:52:14;100073.94;;;-0.55;100.00
5522;BME280;2783;48.730;8.006;2023-12-04T02:54:39;100075.72;;;-0.49;100.00
5522;BME280;2783;48.730;8.006;2023-12-04T02:57:04;100075.69;;;-0.51;100.00
5522;BME280;2783;48.730;8.006;2023-12-04T02:59:30;100079.22;;;-0.47;100.00
5522;BME280;2783;48.730;8.006;2023-12-04T03:01:55;100073.19;;;-0.45;100.00
5522;BME280;2783;48.730;8.006;2023-12-04T03:04:20;100080.16;;;-0.42;100.00
5522;BME280;2783;48.730;8.006;2023-12-04T03:06:46;100080.19;;;-0.39;100.00
5522;BME280;2783;48.730;8.006;2023-12-04T03:09:11;100085.50;;;-0.35;100.00
5522;BME280;2783;48.730;8.006;2023-12-04T03:11:40;100084.63;;;-0.34;100.00
5522;BME280;2783;48.730;8.006;2023-12-04T03:14:06;100082.03;;;-0.34;100.00
5522;BME280;2783;48.730;8.006;2023-12-04T03:16:31;100079.34;;;-0.40;100.00
5522;BME280;2783;48.730;8.006;2023-12-04T03:18:57;100079.34;;;-0.40;100.00
5522;BME280;2783;48.730;8.006;2023-12-04T03:21:22;100077.56;;;-0.41;100.00
5522;BME280;2783;48.730;8.006;2023-12-04T03:23:48;100081.09;;;-0.37;100.00
5522;BME280;2783;48.730;8.006;2023-12-04T03:26:13;100074.13;;;-0.38;100.00
5522;BME280;2783;48.730;8.006;2023-12-04T03:28:39;100078.47;;;-0.39;100.00
5522;BME280;2783;48.730;8.006;2023-12-04T03:31:05;100060.91;;;-0.52;100.00
5522;BME280;2783;48.730;8.006;2023-12-04T03:33:31;100075.84;;;-0.42;100.00
5522;BME280;2783;48.730;8.006;2023-12-04T03:35:56;100067.91;;;-0.48;100.00
5522;BME280;2783;48.730;8.006;2023-12-04T03:38:21;100058.31;;;-0.50;100.00
5522;BME280;2783;48.730;8.006;2023-12-04T03:40:47;100064.44;;;-0.47;100.00
5522;BME280;2783;48.730;8.006;2023-12-04T03:43:12;100074.97;;;-0.41;100.00
5522;BME280;2783;48.730;8.006;2023-12-04T03:45:38;100071.50;;;-0.40;100.00
5522;BME280;2783;48.730;8.006;2023-12-04T03:48:03;100057.56;;;-0.40;100.00
5522;BME280;2783;48.730;8.006;2023-12-04T03:50:28;100070.69;;;-0.33;100.00
5522;BME280;2783;48.730;8.006;2023-12-04T03:52:54;100071.56;;;-0.34;100.00
5522;BME280;2783;48.730;8.006;2023-12-04T03:55:19;100064.66;;;-0.29;100.00
5522;BME280;2783;48.730;8.006;2023-12-04T03:57:45;100054.19;;;-0.32;100.00
5522;BME280;2783;48.730;8.006;2023-12-04T04:00:11;100069.00;;;-0.29;100.00
5522;BME280;2783;48.730;8.006;2023-12-04T04:02:38;100068.19;;;-0.24;100.00
5522;BME280;2783;48.730;8.006;2023-12-04T04:05:04;100059.50;;;-0.23;100.00
5522;BME280;2783;48.730;8.006;2023-12-04T04:07:30;100052.50;;;-0.27;100.00
5522;BME280;2783;48.730;8.006;2023-12-04T04:09:56;100055.13;;;-0.25;100.00
5522;BME280;2783;48.730;8.006;2023-12-04T04:12:22;100043.75;;;-0.29;100.00
5522;BME280;2783;48.730;8.006;2023-12-04T04:14:47;100053.44;;;-0.20;100.00
5522;BME280;2783;48.730;8.006;2023-12-04T04:17:12;100052.56;;;-0.18;100.00
5522;BME280;2783;48.730;8.006;2023-12-04T04:19:38;100053.47;;;-0.16;100.00
5522;BME280;2783;48.730;8.006;2023-12-04T04:22:04;100050.88;;;-0.16;100.00
5522;BME280;2783;48.730;8.006;2023-12-04T04:24:30;100031.63;;;-0.22;100.00
5522;BME280;2783;48.730;8.006;2023-12-04T04:26:55;100039.50;;;-0.19;100.00
5522;BME280;2783;48.730;8.006;2023-12-04T04:29:20;100029.00;;;-0.22;100.00
5522;BME280;2783;48.730;8.006;2023-12-04T04:31:46;100018.53;;;-0.27;100.00
5522;BME280;2783;48.730;8.006;2023-12-04T04:34:11;100032.53;;;-0.20;100.00
5522;BME280;2783;48.730;8.006;2023-12-04T04:36:37;100028.13;;;-0.23;100.00
5522;BME280;2783;48.730;8.006;2023-12-04T04:39:02;100022.06;;;-0.23;100.00
5522;BME280;2783;48.730;8.006;2023-12-04T04:41:28;100022.94;;;-0.20;100.00
5522;BME280;2783;48.730;8.006;2023-12-04T04:43:53;100009.84;;;-0.23;100.00
5522;BME280;2783;48.730;8.006;2023-12-04T04:46:19;100002.94;;;-0.16;100.00
5522;BME280;2783;48.730;8.006;2023-12-04T04:48:44;100004.69;;;-0.15;100.00
5522;BME280;2783;48.730;8.006;2023-12-04T04:51:10;100006.44;;;-0.13;100.00
5522;BME280;2783;48.730;8.006;2023-12-04T04:53:35;100009.03;;;-0.16;100.00
5522;BME280;2783;48.730;8.006;2023-12-04T04:56:00;100002.06;;;-0.17;100.00
5522;BME280;2783;48.730;8.006;2023-12-04T04:58:26;99994.19;;;-0.20;100.00
5522;BME280;2783;48.730;8.006;2023-12-04T05:00:51;99965.22;;;-0.41;100.00
5522;BME280;2783;48.730;8.006;2023-12-04T05:03:17;99993.34;;;-0.19;100.00
5522;BME280;2783;48.730;8.006;2023-12-04T05:05:42;99987.16;;;-0.27;100.00
5522;BME280;2783;48.730;8.006;2023-12-04T05:08:07;99976.69;;;-0.28;100.00
5522;BME280;2783;48.730;8.006;2023-12-04T05:10:33;99987.19;;;-0.24;100.00
5522;BME280;2783;48.730;8.006;2023-12-04T05:12:58;99970.56;;;-0.32;100.00
5522;BME280;2783;48.730;8.006;2023-12-04T05:15:24;99972.34;;;-0.25;100.00
5522;BME280;2783;48.730;8.006;2023-12-04T05:17:50;99981.09;;;-0.23;100.00
5522;BME280;2783;48.730;8.006;2023-12-04T05:20:16;99968.88;;;-0.27;100.00
5522;BME280;2783;48.730;8.006;2023-12-04T05:22:41;99974.97;;;-0.25;100.00
5522;BME280;2783;48.730;8.006;2023-12-04T05:25:07;99960.13;;;-0.32;100.00
5522;BME280;2783;48.730;8.006;2023-12-04T05:27:32;99961.03;;;-0.25;100.00
5522;BME280;2783;48.730;8.006;2023-12-04T05:29:58;99947.06;;;-0.30;100.00
5522;BME280;2783;48.730;8.006;2023-12-04T05:32:23;99950.59;;;-0.24;100.00
5522;BME280;2783;48.730;8.006;2023-12-04T05:34:49;99945.34;;;-0.28;100.00
5522;BME280;2783;48.730;8.006;2023-12-04T05:37:14;99962.78;;;-0.23;100.00
5522;BME280;2783;48.730;8.006;2023-12-04T05:39:39;99964.47;;;-0.31;100.00
5522;BME280;2783;48.730;8.006;2023-12-04T05:42:05;99956.63;;;-0.32;100.00
5522;BME280;2783;48.730;8.006;2023-12-04T05:44:31;99947.91;;;-0.31;100.00
5522;BME280;2783;48.730;8.006;2023-12-04T05:46:57;99919.88;;;-0.50;100.00
5522;BME280;2783;48.730;8.006;2023-12-04T05:49:22;99946.16;;;-0.34;100.00
5522;BME280;2783;48.730;8.006;2023-12-04T05:51:48;99944.44;;;-0.32;100.00
5522;BME280;2783;48.730;8.006;2023-12-04T05:54:13;99933.91;;;-0.36;100.00
5522;BME280;2783;48.730;8.006;2023-12-04T05:56:39;99921.75;;;-0.33;100.00
5522;BME280;2783;48.730;8.006;2023-12-04T05:59:04;99914.84;;;-0.26;100.00
5522;BME280;2783;48.730;8.006;2023-12-04T06:01:29;99904.38;;;-0.28;100.00
5522;BME280;2783;48.730;8.006;2023-12-04T06:03:55;99903.56;;;-0.24;100.00
5522;BME280;2783;48.730;8.006;2023-12-04T06:06:20;99892.31;;;-0.14;100.00
5522;BME280;2783;48.730;8.006;2023-12-04T06:08:46;99882.72;;;-0.16;100.00
5522;BME280;2783;48.730;8.006;2023-12-04T06:11:11;99886.22;;;-0.11;100.00
5522;BME280;2783;48.730;8.006;2023-12-04T06:13:37;99895.00;;;-0.03;100.00
5522;BME280;2783;48.730;8.006;2023-12-04T06:16:02;99880.22;;;-0.01;100.00
5522;BME280;2783;48.730;8.006;2023-12-04T06:18:28;99875.00;;;0.00;100.00
5522;BME280;2783;48.730;8.006;2023-12-04T06:20:53;99866.31;;;0.02;100.00
5522;BME280;2783;48.730;8.006;2023-12-04T06:23:19;99859.31;;;0.03;100.00
5522;BME280;2783;48.730;8.006;2023-12-04T06:25:45;99843.63;;;0.00;100.00
5522;BME280;2783;48.730;8.006;2023-12-04T06:28:10;99855.88;;;0.11;100.00
5522;BME280;2783;48.730;8.006;2023-12-04T06:30:36;99865.50;;;0.13;100.00
5522;BME280;2783;48.730;8.006;2023-12-04T06:33:01;99864.63;;;0.13;100.00
5522;BME280;2783;48.730;8.006;2023-12-04T06:35:27;99848.94;;;0.10;100.00
5522;BME280;2783;48.730;8.006;2023-12-04T06:37:53;99847.22;;;0.15;100.00
5522;BME280;2783;48.730;8.006;2023-12-04T06:40:20;99854.19;;;0.19;100.00
5522;BME280;2783;48.730;8.006;2023-12-04T06:42:46;99851.59;;;0.19;100.00
5522;BME280;2783;48.730;8.006;2023-12-04T06:45:12;99848.94;;;0.16;100.00
5522;BME280;2783;48.730;8.006;2023-12-04T06:47:40;99850.69;;;0.14;100.00
5522;BME280;2783;48.730;8.006;2023-12-04T06:50:06;99866.34;;;0.11;100.00
5522;BME280;2783;48.730;8.006;2023-12-04T06:52:31;99859.38;;;0.10;100.00
5522;BME280;2783;48.730;8.006;2023-12-04T06:54:57;99871.59;;;0.12;100.00
5522;BME280;2783;48.730;8.006;2023-12-04T06:57:22;99862.84;;;0.09;100.00
5522;BME280;2783;48.730;8.006;2023-12-04T06:59:47;99868.13;;;0.15;100.00
5522;BME280;2783;48.730;8.006;2023-12-04T07:02:13;99881.22;;;0.19;100.00
5522;BME280;2783;48.730;8.006;2023-12-04T07:04:38;99878.63;;;0.19;100.00
5522;BME280;2783;48.730;8.006;2023-12-04T07:07:05;99875.09;;;0.16;100.00
5522;BME280;2783;48.730;8.006;2023-12-04T07:09:33;99876.84;;;0.17;100.00
5522;BME280;2783;48.730;8.006;2023-12-04T07:12:00;99886.44;;;0.15;100.00
5522;BME280;2783;48.730;8.006;2023-12-04T07:14:25;99888.19;;;0.17;100.00
5522;BME280;2783;48.730;8.006;2023-12-04T07:16:51;99866.38;;;0.14;100.00
5522;BME280;2783;48.730;8.006;2023-12-04T07:19:17;99859.44;;;0.23;100.00
5522;BME280;2783;48.730;8.006;2023-12-04T07:21:42;99866.47;;;0.30;100.00
5522;BME280;2783;48.730;8.006;2023-12-04T07:24:08;99874.34;;;0.35;100.00
5522;BME280;2783;48.730;8.006;2023-12-04T07:26:34;99881.38;;;0.43;100.00
5522;BME280;2783;48.730;8.006;2023-12-04T07:29:01;99869.16;;;0.42;100.00
5522;BME280;2783;48.730;8.006;2023-12-04T07:31:27;99883.16;;;0.52;100.00
5522;BME280;2783;48.730;8.006;2023-12-04T07:33:55;99883.16;;;0.53;100.00
5522;BME280;2783;48.730;8.006;2023-12-04T07:36:21;99875.31;;;0.55;100.00
5522;BME280;2783;48.730;8.006;2023-12-04T07:38:46;99856.16;;;0.54;100.00
5522;BME280;2783;48.730;8.006;2023-12-04T07:41:12;99860.50;;;0.60;100.00
5522;BME280;2783;48.730;8.006;2023-12-04T07:43:39;99850.94;;;0.59;100.00
5522;BME280;2783;48.730;8.006;2023-12-04T07:46:04;99844.81;;;0.61;100.00
5522;BME280;2783;48.730;8.006;2023-12-04T07:48:30;99842.19;;;0.61;100.00
5522;BME280;2783;48.730;8.006;2023-12-04T07:50:56;99849.22;;;0.64;100.00
5522;BME280;2783;48.730;8.006;2023-12-04T07:53:22;99833.50;;;0.64;100.00
5522;BME280;2783;48.730;8.006;2023-12-04T07:55:48;99818.66;;;0.61;100.00
5522;BME280;2783;48.730;8.006;2023-12-04T07:58:16;99816.06;;;0.66;100.00
5522;BME280;2783;48.730;8.006;2023-12-04T08:00:42;99830.06;;;0.74;100.00
5522;BME280;2783;48.730;8.006;2023-12-04T08:03:08;99819.59;;;0.83;100.00
5522;BME280;2783;48.730;8.006;2023-12-04T08:05:33;99824.00;;;0.90;100.00
5522;BME280;2783;48.730;8.006;2023-12-04T08:07:59;99815.25;;;0.86;100.00
5522;BME280;2783;48.730;8.006;2023-12-04T08:10:25;99801.31;;;0.95;100.00
5522;BME280;2783;48.730;8.006;2023-12-04T08:12:50;99793.47;;;1.01;100.00
5522;BME280;2783;48.730;8.006;2023-12-04T08:15:16;99796.06;;;1.02;100.00
5522;BME280;2783;48.730;8.006;2023-12-04T08:17:41;99800.47;;;1.03;100.00
5522;BME280;2783;48.730;8.006;2023-12-04T08:20:07;99803.94;;;0.96;100.00
5522;BME280;2783;48.730;8.006;2023-12-04T08:22:39;99810.06;;;0.98;100.00
5522;BME280;2783;48.730;8.006;2023-12-04T08:25:04;99790.84;;;0.98;100.00
5522;BME280;2783;48.730;8.006;2023-12-04T08:27:32;99806.56;;;1.04;100.00
5522;BME280;2783;48.730;8.006;2023-12-04T08:29:57;99803.09;;;1.12;100.00
5522;BME280;2783;48.730;8.006;2023-12-04T08:32:23;99796.97;;;1.10;100.00
5522;BME280;2783;48.730;8.006;2023-12-04T08:34:49;99803.97;;;1.19;100.00
5522;BME280;2783;48.730;8.006;2023-12-04T08:37:15;99790.00;;;1.14;100.00
5522;BME280;2783;48.730;8.006;2023-12-04T08:39:40;99805.72;;;1.23;100.00
5522;BME280;2783;48.730;8.006;2023-12-04T08:42:06;99805.72;;;1.23;100.00
5522;BME280;2783;48.730;8.006;2023-12-04T08:44:31;99817.94;;;1.24;100.00
5522;BME280;2783;48.730;8.006;2023-12-04T08:46:57;99822.31;;;1.20;100.00
5522;BME280;2783;48.730;8.006;2023-12-04T08:49:23;99826.69;;;1.17;100.00
5522;BME280;2783;48.730;8.006;2023-12-04T08:51:51;99826.69;;;1.20;100.00
5522;BME280;2783;48.730;8.006;2023-12-04T08:54:17;99817.94;;;1.24;100.00
5522;BME280;2783;48.730;8.006;2023-12-04T08:56:43;99823.22;;;1.30;100.00
5522;BME280;2783;48.730;8.006;2023-12-04T08:59:09;99831.06;;;1.42;100.00
5522;BME280;2783;48.730;8.006;2023-12-04T09:01:35;99833.69;;;1.45;100.00
5522;BME280;2783;48.730;8.006;2023-12-04T09:04:00;99839.78;;;1.52;100.00
5522;BME280;2783;48.730;8.006;2023-12-04T09:06:25;99809.25;;;1.58;100.00
5522;BME280;2783;48.730;8.006;2023-12-04T09:08:51;99820.59;;;1.60;100.00
5522;BME280;2783;48.730;8.006;2023-12-04T09:11:16;99824.97;;;1.64;100.00
5522;BME280;2783;48.730;8.006;2023-12-04T09:13:41;99813.59;;;1.58;100.00
5522;BME280;2783;48.730;8.006;2023-12-04T09:16:07;99838.09;;;1.60;100.00
5522;BME280;2783;48.730;8.006;2023-12-04T09:18:33;99859.03;;;1.48;100.00
5522;BME280;2783;48.730;8.006;2023-12-04T09:20:59;99859.88;;;1.41;100.00
5522;BME280;2783;48.730;8.006;2023-12-04T09:23:25;99836.31;;;1.41;100.00
5522;BME280;2783;48.730;8.006;2023-12-04T09:25:50;99831.09;;;1.48;100.00
5522;BME280;2783;48.730;8.006;2023-12-04T09:28:16;99874.75;;;1.57;100.00
5522;BME280;2783;48.730;8.006;2023-12-04T09:30:41;99852.91;;;1.62;100.00
5522;BME280;2783;48.730;8.006;2023-12-04T09:33:07;99845.94;;;1.70;100.00
5522;BME280;2783;48.730;8.006;2023-12-04T09:35:32;99816.22;;;1.77;100.00
5522;BME280;2783;48.730;8.006;2023-12-04T09:37:58;99804.84;;;1.87;100.00
5522;BME280;2783;48.730;8.006;2023-12-04T09:40:23;99798.69;;;1.91;100.00
5522;BME280;2783;48.730;8.006;2023-12-04T09:42:49;99803.94;;;2.06;100.00
5522;BME280;2783;48.730;8.006;2023-12-04T09:45:15;99794.28;;;2.14;100.00
5522;BME280;2783;48.730;8.006;2023-12-04T09:47:42;99791.66;;;2.14;100.00
5522;BME280;2783;48.730;8.006;2023-12-04T09:50:08;99789.91;;;2.16;100.00
5522;BME280;2783;48.730;8.006;2023-12-04T09:52:34;99798.66;;;2.21;100.00
5522;BME280;2783;48.730;8.006;2023-12-04T09:55:00;99780.28;;;2.18;100.00
5522;BME280;2783;48.730;8.006;2023-12-04T09:57:26;99779.41;;;2.25;100.00
5522;BME280;2783;48.730;8.006;2023-12-04T09:59:52;99791.63;;;2.31;100.00
5522;BME280;2783;48.730;8.006;2023-12-04T10:02:19;99795.09;;;2.34;100.00
5522;BME280;2783;48.730;8.006;2023-12-04T10:04:45;99785.50;;;2.32;100.00
5522;BME280;2783;48.730;8.006;2023-12-04T10:07:11;99775.00;;;2.32;99.72
5522;BME280;2783;48.730;8.006;2023-12-04T10:09:36;99772.41;;;2.24;100.00
5522;BME280;2783;48.730;8.006;2023-12-04T10:12:02;99764.50;;;2.26;99.91
5522;BME280;2783;48.730;8.006;2023-12-04T10:14:27;99775.94;;;2.20;99.31
5522;BME280;2783;48.730;8.006;2023-12-04T10:16:52;99777.63;;;2.24;100.00
5522;BME280;2783;48.730;8.006;2023-12-04T10:19:22;99760.19;;;2.20;99.72
5522;BME280;2783;48.730;8.006;2023-12-04T10:21:52;99749.69;;;2.11;99.87
5522;BME280;2783;48.730;8.006;2023-12-04T10:24:36;99762.81;;;2.14;100.00
5522;BME280;2783;48.730;8.006;2023-12-04T10:27:04;99754.94;;;2.13;99.96
5522;BME280;2783;48.730;8.006;2023-12-04T10:29:46;99731.34;;;2.17;100.00
5522;BME280;2783;48.730;8.006;2023-12-04T10:32:12;99733.94;;;2.23;100.00
5522;BME280;2783;48.730;8.006;2023-12-04T10:34:38;99728.69;;;2.20;100.00
5522;BME280;2783;48.730;8.006;2023-12-04T10:37:07;99715.59;;;2.20;100.00
5522;BME280;2783;48.730;8.006;2023-12-04T10:39:48;99713.84;;;2.15;100.00
5522;BME280;2783;48.730;8.006;2023-12-04T10:42:27;99719.97;;;2.15;100.00
5522;BME280;2783;48.730;8.006;2023-12-04T10:44:57;99739.19;;;2.20;100.00
5522;BME280;2783;48.730;8.006;2023-12-04T10:47:23;99736.56;;;2.23;100.00
5522;BME280;2783;48.730;8.006;2023-12-04T10:49:52;99724.25;;;2.34;100.00
5522;BME280;2783;48.730;8.006;2023-12-04T10:52:18;99724.28;;;2.30;100.00
5522;BME280;2783;48.730;8.006;2023-12-04T10:54:49;99704.16;;;2.33;99.86
5522;BME280;2783;48.730;8.006;2023-12-04T10:57:30;99699.75;;;2.37;99.99
5522;BME280;2783;48.730;8.006;2023-12-04T10:59:58;99696.19;;;2.50;100.00
5522;BME280;2783;48.730;8.006;2023-12-04T11:02:29;99683.88;;;2.58;100.00
5522;BME280;2783;48.730;8.006;2023-12-04T11:05:07;99658.50;;;2.61;100.00
5522;BME280;2783;48.730;8.006;2023-12-04T11:07:48;99658.44;;;2.67;99.81
5522;BME280;2783;48.730;8.006;2023-12-04T11:10:15;99662.13;;;2.39;98.20
5522;BME280;2783;48.730;8.006;2023-12-04T11:12:44;99659.56;;;2.29;97.84
5522;BME280;2783;48.730;8.006;2023-12-04T11:15:14;99669.22;;;2.18;97.79
5522;BME280;2783;48.730;8.006;2023-12-04T11:17:42;99660.50;;;2.20;98.14
5522;BME280;2783;48.730;8.006;2023-12-04T11:20:16;99643.84;;;2.24;98.55
5522;BME280;2783;48.730;8.006;2023-12-04T11:22:44;99636.81;;;2.29;98.82
5522;BME280;2783;48.730;8.006;2023-12-04T11:25:12;99608.78;;;2.34;99.48
5522;BME280;2783;48.730;8.006;2023-12-04T11:27:38;99613.97;;;2.48;99.08
5522;BME280;2783;48.730;8.006;2023-12-04T11:30:05;99609.53;;;2.54;99.22
5522;BME280;2783;48.730;8.006;2023-12-04T11:32:31;99599.84;;;2.64;99.05
5522;BME280;2783;48.730;8.006;2023-12-04T11:34:59;99600.66;;;2.69;99.10
5522;BME280;2783;48.730;8.006;2023-12-04T11:37:26;99574.50;;;2.60;98.66
5522;BME280;2783;48.730;8.006;2023-12-04T11:39:51;99580.59;;;2.62;97.88
5522;BME280;2783;48.730;8.006;2023-12-04T11:42:24;99573.69;;;2.52;98.05
5522;BME280;2783;48.730;8.006;2023-12-04T11:44:57;99570.13;;;2.57;98.39
5522;BME280;2783;48.730;8.006;2023-12-04T11:47:23;99564.00;;;2.61;98.36
5522;BME280;2783;48.730;8.006;2023-12-04T11:49:48;99569.28;;;2.58;97.96
5522;BME280;2783;48.730;8.006;2023-12-04T11:52:14;99554.34;;;2.65;98.43
5522;BME280;2783;48.730;8.006;2023-12-04T11:57:23;99547.19;;;2.81;98.68
5522;BME280;2783;48.730;8.006;2023-12-04T11:59:51;99546.31;;;2.82;98.80
5522;BME280;2783;48.730;8.006;2023-12-04T12:02:16;99541.06;;;2.79;98.63
5522;BME280;2783;48.730;8.006;2023-12-04T12:04:42;99535.88;;;2.72;98.34
5522;BME280;2783;48.730;8.006;2023-12-04T12:07:09;99533.22;;;2.74;98.10
5522;BME280;2783;48.730;8.006;2023-12-04T12:09:34;99518.34;;;2.75;98.26
5522;BME280;2783;48.730;8.006;2023-12-04T12:12:03;99513.13;;;2.75;98.91
5522;BME280;2783;48.730;8.006;2023-12-04T12:14:29;99511.38;;;2.70;98.68
5522;BME280;2783;48.730;8.006;2023-12-04T12:16:57;99510.53;;;2.72;98.83
5522;BME280;2783;48.730;8.006;2023-12-04T12:19:24;99509.63;;;2.72;99.07
5522;BME280;2783;48.730;8.006;2023-12-04T12:21:49;99486.09;;;2.62;98.48
5522;BME280;2783;48.730;8.006;2023-12-04T12:24:17;99504.47;;;2.63;99.23
5522;BME280;2783;48.730;8.006;2023-12-04T12:26:42;99486.97;;;2.62;99.08
5522;BME280;2783;48.730;8.006;2023-12-04T12:29:11;99478.13;;;2.71;99.81
5522;BME280;2783;48.730;8.006;2023-12-04T12:31:36;99475.41;;;2.79;99.05
5522;BME280;2783;48.730;8.006;2023-12-04T12:34:02;99464.00;;;2.83;99.72
5522;BME280;2783;48.730;8.006;2023-12-04T12:36:28;99461.38;;;2.84;99.38
5522;BME280;2783;48.730;8.006;2023-12-04T12:38:53;99445.53;;;2.89;100.00
5522;BME280;2783;48.730;8.006;2023-12-04T12:41:20;99451.56;;;3.00;100.00
5522;BME280;2783;48.730;8.006;2023-12-04T12:43:46;99446.19;;;3.09;100.00
5522;BME280;2783;48.730;8.006;2023-12-04T12:46:12;99440.88;;;3.16;100.00
5522;BME280;2783;48.730;8.006;2023-12-04T12:48:38;99445.13;;;3.25;100.00
5522;BME280;2783;48.730;8.006;2023-12-04T12:51:03;99446.81;;;3.29;100.00
5522;BME280;2783;48.730;8.006;2023-12-04T12:53:32;99431.16;;;3.20;100.00
5522;BME280;2783;48.730;8.006;2023-12-04T12:55:59;99433.78;;;3.20;100.00
5522;BME280;2783;48.730;8.006;2023-12-04T12:58:26;99434.81;;;3.10;100.00
5522;BME280;2783;48.730;8.006;2023-12-04T13:00:51;99442.72;;;3.07;100.00
5522;BME280;2783;48.730;8.006;2023-12-04T13:03:17;99440.16;;;3.01;100.00
5522;BME280;2783;48.730;8.006;2023-12-04T13:05:43;99419.22;;;2.96;100.00
5522;BME280;2783;48.730;8.006;2023-12-04T13:08:09;99420.84;;;3.03;100.00
5522;BME280;2783;48.730;8.006;2023-12-04T13:10:34;99401.69;;;2.95;100.00
5522;BME280;2783;48.730;8.006;2023-12-04T13:12:59;99407.78;;;2.99;100.00